sensor_id;sensor_type;location;lat;lon;timestamp;pressure;altitude;pressure_sealevel;temperature;humidity
70468;BME280;57934;51.532;7.684;2023-02-12T00:01:49;102540.72;;;6.86;nan
70468;BME280;57934;51.532;7.684;2023-02-12T00:04:15;102540.50;;;6.89;nan
70468;BME280;57934;51.532;7.684;2023-02-12T00:06:41;102538.84;;;6.88;nan
70468;BME280;57934;51.532;7.684;2023-02-12T00:09:07;102534.53;;;6.87;nan
70468;BME280;57934;51.532;7.684;2023-02-12T00:11:33;102525.81;;;6.87;nan
70468;BME280;57934;51.532;7.684;2023-02-12T00:14:00;102524.16;;;6.86;nan
70468;BME280;57934;51.532;7.684;2023-02-12T00:16:27;102526.88;;;6.84;nan
70468;BME280;57934;51.532;7.684;2023-02-12T00:18:55;102526.88;;;6.84;nan
70468;BME280;57934;51.532;7.684;2023-02-12T00:21:22;102531.28;;;6.84;nan
70468;BME280;57934;51.532;7.684;2023-02-12T00:23:48;102527.13;;;6.81;nan
70468;BME280;57934;51.532;7.684;2023-02-12T00:26:17;102528.88;;;6.81;nan
70468;BME280;57934;51.532;7.684;2023-02-12T00:28:48;102517.78;;;6.77;nan
70468;BME280;57934;51.532;7.684;2023-02-12T00:31:16;102523.03;;;6.77;nan
70468;BME280;57934;51.532;7.684;2023-02-12T00:33:43;102525.56;;;6.79;nan
70468;BME280;57934;51.532;7.684;2023-02-12T00:36:13;102530.91;;;6.77;nan
70468;BME280;57934;51.532;7.684;2023-02-12T00:38:39;102527.44;;;6.77;nan
70468;BME280;57934;51.532;7.684;2023-02-12T00:41:05;102522.19;;;6.77;nan
70468;BME280;57934;51.532;7.684;2023-02-12T00:43:31;102523.63;;;6.81;nan
70468;BME280;57934;51.532;7.684;2023-02-12T00:45:59;102521.97;;;6.80;nan
70468;BME280;57934;51.532;7.684;2023-02-12T00:48:26;102529.22;;;6.76;nan
70468;BME280;57934;51.532;7.684;2023-02-12T00:50:52;102518.75;;;6.76;nan
70468;BME280;57934;51.532;7.684;2023-02-12T00:53:18;102517.19;;;6.74;nan
70468;BME280;57934;51.532;7.684;2023-02-12T00:55:44;102516.47;;;6.72;nan
70468;BME280;57934;51.532;7.684;2023-02-12T00:58:10;102522.53;;;6.72;nan
70468;BME280;57934;51.532;7.684;2023-02-12T01:00:36;102528.75;;;6.71;nan
70468;BME280;57934;51.532;7.684;2023-02-12T01:03:03;102534.91;;;6.70;nan
70468;BME280;57934;51.532;7.684;2023-02-12T01:05:31;102533.16;;;6.71;nan
70468;BME280;57934;51.532;7.684;2023-02-12T01:07:57;102533.47;;;6.66;nan
70468;BME280;57934;51.532;7.684;2023-02-12T01:10:23;102528.22;;;6.66;nan
70468;BME280;57934;51.532;7.684;2023-02-12T01:12:49;102535.25;;;6.65;nan
70468;BME280;57934;51.532;7.684;2023-02-12T01:15:17;102532.03;;;6.62;nan
70468;BME280;57934;51.532;7.684;2023-02-12T01:17:43;102528.44;;;6.63;nan
70468;BME280;57934;51.532;7.684;2023-02-12T01:20:13;102524.38;;;6.59;nan
70468;BME280;57934;51.532;7.684;2023-02-12T01:22:39;102529.75;;;6.57;nan
70468;BME280;57934;51.532;7.684;2023-02-12T01:25:05;102530.78;;;6.55;nan
70468;BME280;57934;51.532;7.684;2023-02-12T01:27:32;102527.78;;;6.48;nan
70468;BME280;57934;51.532;7.684;2023-02-12T01:29:58;102525.28;;;6.47;nan
70468;BME280;57934;51.532;7.684;2023-02-12T01:32:24;102523.59;;;6.45;nan
70468;BME280;57934;51.532;7.684;2023-02-12T01:34:50;102516.69;;;6.44;nan
70468;BME280;57934;51.532;7.684;2023-02-12T01:37:16;102521.31;;;6.41;nan
70468;BME280;57934;51.532;7.684;2023-02-12T01:39:42;102533.56;;;6.40;nan
70468;BME280;57934;51.532;7.684;2023-02-12T01:42:13;102528.34;;;6.40;nan
70468;BME280;57934;51.532;7.684;2023-02-12T01:47:29;102530.97;;;6.40;nan
70468;BME280;57934;51.532;7.684;2023-02-12T01:49:55;102518.69;;;6.41;nan
70468;BME280;57934;51.532;7.684;2023-02-12T01:52:28;102517.53;;;6.45;nan
70468;BME280;57934;51.532;7.684;2023-02-12T01:54:58;102520.97;;;6.45;nan
70468;BME280;57934;51.532;7.684;2023-02-12T01:57:27;102520.03;;;6.47;nan
70468;BME280;57934;51.532;7.684;2023-02-12T01:59:56;102523.72;;;6.44;nan
70468;BME280;57934;51.532;7.684;2023-02-12T02:02:24;102522.75;;;6.45;nan
70468;BME280;57934;51.532;7.684;2023-02-12T02:04:59;102519.81;;;6.50;nan
70468;BME280;57934;51.532;7.684;2023-02-12T02:07:28;102510.41;;;6.47;nan
70468;BME280;57934;51.532;7.684;2023-02-12T02:09:56;102510.50;;;6.45;nan
70468;BME280;57934;51.532;7.684;2023-02-12T02:12:25;102525.06;;;6.50;nan
70468;BME280;57934;51.532;7.684;2023-02-12T02:15:10;102524.81;;;6.53;nan
70468;BME280;57934;51.532;7.684;2023-02-12T02:26:48;102519.69;;;6.51;nan
70468;BME280;57934;51.532;7.684;2023-02-12T02:32:17;102509.56;;;6.47;nan
70468;BME280;57934;51.532;7.684;2023-02-12T02:34:58;102504.94;;;6.50;nan
70468;BME280;57934;51.532;7.684;2023-02-12T02:37:36;102502.31;;;6.50;nan
70468;BME280;57934;51.532;7.684;2023-02-12T02:42:56;102497.69;;;6.54;nan
70468;BME280;57934;51.532;7.684;2023-02-12T02:48:09;102491.00;;;6.50;nan
70468;BME280;57934;51.532;7.684;2023-02-12T02:50:41;102486.81;;;6.47;nan
70468;BME280;57934;51.532;7.684;2023-02-12T02:53:13;102489.53;;;6.45;nan
70468;BME280;57934;51.532;7.684;2023-02-12T02:55:48;102485.97;;;6.47;nan
70468;BME280;57934;51.532;7.684;2023-02-12T02:58:20;102494.66;;;6.47;nan
70468;BME280;57934;51.532;7.684;2023-02-12T03:00:56;102486.06;;;6.45;nan
70468;BME280;57934;51.532;7.684;2023-02-12T03:03:29;102482.53;;;6.46;nan
70468;BME280;57934;51.532;7.684;2023-02-12T03:06:02;102491.94;;;6.49;nan
70468;BME280;57934;51.532;7.684;2023-02-12T03:08:38;102488.25;;;6.51;nan
70468;BME280;57934;51.532;7.684;2023-02-12T03:11:21;102491.94;;;6.49;nan
70468;BME280;57934;51.532;7.684;2023-02-12T03:13:56;102495.28;;;6.51;nan
70468;BME280;57934;51.532;7.684;2023-02-12T03:16:28;102493.63;;;6.50;nan
70468;BME280;57934;51.532;7.684;2023-02-12T03:19:02;102490.03;;;6.51;nan
70468;BME280;57934;51.532;7.684;2023-02-12T03:21:49;102490.03;;;6.51;nan
70468;BME280;57934;51.532;7.684;2023-02-12T03:26:59;102489.22;;;6.50;nan
70468;BME280;57934;51.532;7.684;2023-02-12T03:29:27;102487.28;;;6.52;nan
70468;BME280;57934;51.532;7.684;2023-02-12T03:32:18;102488.59;;;6.47;nan
70468;BME280;57934;51.532;7.684;2023-02-12T03:43:22;102496.69;;;6.43;nan
70468;BME280;57934;51.532;7.684;2023-02-12T03:46:14;102503.84;;;6.53;nan
70468;BME280;57934;51.532;7.684;2023-02-12T03:48:56;102502.41;;;6.49;nan
70468;BME280;57934;51.532;7.684;2023-02-12T03:51:48;102504.31;;;6.47;nan
70468;BME280;57934;51.532;7.684;2023-02-12T03:54:17;102499.78;;;6.49;nan
70468;BME280;57934;51.532;7.684;2023-02-12T03:57:01;102502.88;;;6.42;nan
70468;BME280;57934;51.532;7.684;2023-02-12T03:59:28;102509.88;;;6.42;nan
70468;BME280;57934;51.532;7.684;2023-02-12T04:01:57;102509.03;;;6.41;nan
70468;BME280;57934;51.532;7.684;2023-02-12T04:04:25;102507.50;;;6.39;nan
70468;BME280;57934;51.532;7.684;2023-02-12T04:06:54;102509.38;;;6.37;nan
70468;BME280;57934;51.532;7.684;2023-02-12T04:09:22;102506.75;;;6.37;nan
70468;BME280;57934;51.532;7.684;2023-02-12T04:15:36;102520.59;;;6.39;nan
70468;BME280;57934;51.532;7.684;2023-02-12T04:18:14;102517.13;;;6.38;nan
70468;BME280;57934;51.532;7.684;2023-02-12T04:27:07;102519.53;;;6.41;nan
70468;BME280;57934;51.532;7.684;2023-02-12T04:29:49;102521.31;;;6.41;nan
70468;BME280;57934;51.532;7.684;2023-02-12T04:32:28;102525.84;;;6.39;nan
70468;BME280;57934;51.532;7.684;2023-02-12T04:35:02;102527.38;;;6.41;nan
70468;BME280;57934;51.532;7.684;2023-02-12T04:37:40;102539.56;;;6.42;nan
70468;BME280;57934;51.532;7.684;2023-02-12T04:40:12;102547.50;;;6.41;nan
70468;BME280;57934;51.532;7.684;2023-02-12T04:42:41;102542.41;;;6.39;nan
70468;BME280;57934;51.532;7.684;2023-02-12T04:45:10;102544.91;;;6.41;nan
70468;BME280;57934;51.532;7.684;2023-02-12T04:47:36;102547.63;;;6.39;nan
70468;BME280;57934;51.532;7.684;2023-02-12T04:50:03;102552.75;;;6.41;nan
70468;BME280;57934;51.532;7.684;2023-02-12T04:52:29;102541.56;;;6.39;nan
70468;BME280;57934;51.532;7.684;2023-02-12T04:54:55;102557.28;;;6.39;nan
70468;BME280;57934;51.532;7.684;2023-02-12T04:57:21;102550.13;;;6.41;nan
70468;BME280;57934;51.532;7.684;2023-02-12T04:59:47;102547.41;;;6.42;nan
70468;BME280;57934;51.532;7.684;2023-02-12T05:02:12;102555.16;;;6.44;nan
70468;BME280;57934;51.532;7.684;2023-02-12T05:04:38;102550.03;;;6.42;nan
70468;BME280;57934;51.532;7.684;2023-02-12T05:07:04;102553.38;;;6.44;nan
70468;BME280;57934;51.532;7.684;2023-02-12T05:09:30;102554.13;;;6.47;nan
70468;BME280;57934;51.532;7.684;2023-02-12T05:11:56;102540.78;;;6.50;nan
70468;BME280;57934;51.532;7.684;2023-02-12T05:14:23;102552.94;;;6.51;nan
70468;BME280;57934;51.532;7.684;2023-02-12T05:16:50;102549.50;;;6.50;nan
70468;BME280;57934;51.532;7.684;2023-02-12T05:19:16;102549.59;;;6.49;nan
70468;BME280;57934;51.532;7.684;2023-02-12T05:21:42;102546.25;;;6.47;nan
70468;BME280;57934;51.532;7.684;2023-02-12T05:24:08;102551.28;;;6.50;nan
70468;BME280;57934;51.532;7.684;2023-02-12T05:26:35;102555.91;;;6.46;nan
70468;BME280;57934;51.532;7.684;2023-02-12T05:29:01;102555.03;;;6.45;nan
70468;BME280;57934;51.532;7.684;2023-02-12T05:31:28;102554.31;;;6.43;nan
70468;BME280;57934;51.532;7.684;2023-02-12T05:33:54;102558.00;;;6.41;nan
70468;BME280;57934;51.532;7.684;2023-02-12T05:36:22;102561.22;;;6.44;nan
70468;BME280;57934;51.532;7.684;2023-02-12T05:38:49;102556.00;;;6.44;nan
70468;BME280;57934;51.532;7.684;2023-02-12T05:41:21;102556.72;;;6.47;nan
70468;BME280;57934;51.532;7.684;2023-02-12T05:43:48;102556.72;;;6.47;nan
70468;BME280;57934;51.532;7.684;2023-02-12T05:46:14;102556.72;;;6.47;nan
70468;BME280;57934;51.532;7.684;2023-02-12T05:48:40;102560.28;;;6.45;nan
70468;BME280;57934;51.532;7.684;2023-02-12T05:51:08;102555.03;;;6.45;nan
70468;BME280;57934;51.532;7.684;2023-02-12T05:53:36;102552.31;;;6.47;nan
70468;BME280;57934;51.532;7.684;2023-02-12T05:56:11;102553.38;;;6.44;nan
70468;BME280;57934;51.532;7.684;2023-02-12T05:58:37;102561.22;;;6.44;nan
70468;BME280;57934;51.532;7.684;2023-02-12T06:01:09;102557.16;;;6.40;nan
70468;BME280;57934;51.532;7.684;2023-02-12T06:03:35;102560.53;;;6.42;nan
70468;BME280;57934;51.532;7.684;2023-02-12T06:06:01;102558.72;;;6.43;nan
70468;BME280;57934;51.532;7.684;2023-02-12T06:08:27;102563.25;;;6.41;nan
70468;BME280;57934;51.532;7.684;2023-02-12T06:10:53;102562.19;;;6.43;nan
70468;BME280;57934;51.532;7.684;2023-02-12T06:13:19;102563.97;;;6.43;nan
70468;BME280;57934;51.532;7.684;2023-02-12T06:15:45;102564.81;;;6.43;nan
70468;BME280;57934;51.532;7.684;2023-02-12T06:18:11;102569.09;;;6.44;nan
70468;BME280;57934;51.532;7.684;2023-02-12T06:20:40;102572.66;;;6.43;nan
70468;BME280;57934;51.532;7.684;2023-02-12T06:23:06;102577.06;;;6.43;nan
70468;BME280;57934;51.532;7.684;2023-02-12T06:25:32;102572.53;;;6.45;nan
70468;BME280;57934;51.532;7.684;2023-02-12T06:27:57;102574.25;;;6.46;nan
70468;BME280;57934;51.532;7.684;2023-02-12T06:30:23;102576.88;;;6.46;nan
70468;BME280;57934;51.532;7.684;2023-02-12T06:32:49;102576.88;;;6.46;nan
70468;BME280;57934;51.532;7.684;2023-02-12T06:35:15;102581.25;;;6.45;nan
70468;BME280;57934;51.532;7.684;2023-02-12T06:37:41;102582.09;;;6.46;nan
70468;BME280;57934;51.532;7.684;2023-02-12T06:40:07;102582.94;;;6.47;nan
70468;BME280;57934;51.532;7.684;2023-02-12T06:42:33;102576.00;;;6.45;nan
70468;BME280;57934;51.532;7.684;2023-02-12T06:44:59;102584.38;;;6.51;nan
70468;BME280;57934;51.532;7.684;2023-02-12T06:47:26;102583.34;;;6.53;nan
70468;BME280;57934;51.532;7.684;2023-02-12T06:49:52;102582.72;;;6.50;nan
70468;BME280;57934;51.532;7.684;2023-02-12T06:52:18;102587.97;;;6.50;nan
70468;BME280;57934;51.532;7.684;2023-02-12T06:54:45;102588.59;;;6.53;nan
70468;BME280;57934;51.532;7.684;2023-02-12T06:57:11;102596.31;;;6.55;nan
70468;BME280;57934;51.532;7.684;2023-02-12T06:59:38;102592.97;;;6.53;nan
70468;BME280;57934;51.532;7.684;2023-02-12T07:02:04;102594.44;;;6.57;nan
70468;BME280;57934;51.532;7.684;2023-02-12T07:04:30;102591.91;;;6.55;nan
70468;BME280;57934;51.532;7.684;2023-02-12T07:06:56;102601.44;;;6.56;nan
70468;BME280;57934;51.532;7.684;2023-02-12T07:09:22;102596.09;;;6.58;nan
70468;BME280;57934;51.532;7.684;2023-02-12T07:11:48;102595.69;;;6.64;nan
70468;BME280;57934;51.532;7.684;2023-02-12T07:14:15;102593.75;;;6.66;nan
70468;BME280;57934;51.532;7.684;2023-02-12T07:16:41;102596.38;;;6.66;nan
70468;BME280;57934;51.532;7.684;2023-02-12T07:19:10;102609.28;;;6.69;nan
70468;BME280;57934;51.532;7.684;2023-02-12T07:21:36;102602.97;;;6.72;nan
70468;BME280;57934;51.532;7.684;2023-02-12T07:24:02;102608.09;;;6.73;nan
70468;BME280;57934;51.532;7.684;2023-02-12T07:26:28;102613.13;;;6.76;nan
70468;BME280;57934;51.532;7.684;2023-02-12T07:28:55;102612.91;;;6.79;nan
70468;BME280;57934;51.532;7.684;2023-02-12T07:31:22;102623.06;;;6.84;nan
70468;BME280;57934;51.532;7.684;2023-02-12T07:33:53;102618.13;;;6.92;nan
70468;BME280;57934;51.532;7.684;2023-02-12T07:36:20;102623.25;;;6.93;nan
70468;BME280;57934;51.532;7.684;2023-02-12T07:38:46;102627.31;;;6.98;nan
70468;BME280;57934;51.532;7.684;2023-02-12T07:41:18;102632.13;;;7.04;nan
70468;BME280;57934;51.532;7.684;2023-02-12T07:43:46;102629.28;;;7.07;nan
70468;BME280;57934;51.532;7.684;2023-02-12T07:46:21;102627.63;;;7.06;nan
70468;BME280;57934;51.532;7.684;2023-02-12T07:48:47;102635.22;;;7.09;nan
70468;BME280;57934;51.532;7.684;2023-02-12T07:51:16;102634.88;;;7.02;nan
70468;BME280;57934;51.532;7.684;2023-02-12T07:53:46;102637.59;;;7.01;nan
70468;BME280;57934;51.532;7.684;2023-02-12T07:56:15;102645.00;;;7.07;nan
70468;BME280;57934;51.532;7.684;2023-02-12T07:58:43;102644.06;;;7.08;nan
70468;BME280;57934;51.532;7.684;2023-02-12T08:01:17;102653.38;;;7.12;nan
70468;BME280;57934;51.532;7.684;2023-02-12T08:03:43;102647.69;;;7.18;nan
70468;BME280;57934;51.532;7.684;2023-02-12T08:06:15;102651.75;;;7.22;nan
70468;BME280;57934;51.532;7.684;2023-02-12T08:08:41;102654.28;;;7.24;nan
70468;BME280;57934;51.532;7.684;2023-02-12T08:11:08;102654.38;;;7.22;nan
70468;BME280;57934;51.532;7.684;2023-02-12T08:13:35;102659.19;;;7.28;nan
70468;BME280;57934;51.532;7.684;2023-02-12T08:16:04;102665.88;;;7.32;nan
70468;BME280;57934;51.532;7.684;2023-02-12T08:18:32;102661.16;;;7.37;nan
70468;BME280;57934;51.532;7.684;2023-02-12T08:21:13;102663.41;;;7.42;nan
70468;BME280;57934;51.532;7.684;2023-02-12T08:23:40;102662.47;;;7.43;nan
70468;BME280;57934;51.532;7.684;2023-02-12T08:26:18;102661.19;;;7.49;nan
70468;BME280;57934;51.532;7.684;2023-02-12T08:28:47;102660.72;;;7.55;nan
70468;BME280;57934;51.532;7.684;2023-02-12T08:31:15;102668.34;;;7.58;nan
70468;BME280;57934;51.532;7.684;2023-02-12T08:33:43;102666.25;;;7.63;nan
70468;BME280;57934;51.532;7.684;2023-02-12T08:36:12;102664.91;;;7.69;nan
70468;BME280;57934;51.532;7.684;2023-02-12T08:38:39;102665.31;;;7.75;nan
70468;BME280;57934;51.532;7.684;2023-02-12T08:41:08;102669.63;;;7.76;nan
70468;BME280;57934;51.532;7.684;2023-02-12T08:43:35;102671.91;;;7.81;nan
70468;BME280;57934;51.532;7.684;2023-02-12T08:46:06;102673.69;;;7.80;nan
70468;BME280;57934;51.532;7.684;2023-02-12T08:48:33;102667.97;;;7.86;nan
70468;BME280;57934;51.532;7.684;2023-02-12T08:51:17;102671.81;;;7.94;nan
70468;BME280;57934;51.532;7.684;2023-02-12T08:53:45;102677.19;;;8.03;nan
70468;BME280;57934;51.532;7.684;2023-02-12T08:56:13;102669.78;;;8.08;nan
70468;BME280;57934;51.532;7.684;2023-02-12T08:58:40;102683.78;;;8.20;nan
70468;BME280;57934;51.532;7.684;2023-02-12T09:01:15;102678.53;;;8.20;nan
70468;BME280;57934;51.532;7.684;2023-02-12T09:03:42;102682.47;;;8.26;nan
70468;BME280;57934;51.532;7.684;2023-02-12T09:06:08;102680.31;;;8.31;nan
70468;BME280;57934;51.532;7.684;2023-02-12T09:08:35;102682.72;;;8.34;nan
70468;BME280;57934;51.532;7.684;2023-02-12T09:11:07;102685.25;;;8.35;nan
70468;BME280;57934;51.532;7.684;2023-02-12T09:13:34;102686.69;;;8.40;nan
70468;BME280;57934;51.532;7.684;2023-02-12T09:16:02;102688.72;;;8.47;nan
70468;BME280;57934;51.532;7.684;2023-02-12T09:18:29;102686.56;;;8.52;nan
70468;BME280;57934;51.532;7.684;2023-02-12T09:21:00;102688.84;;;8.57;nan
70468;BME280;57934;51.532;7.684;2023-02-12T09:23:27;102685.00;;;8.61;nan
70468;BME280;57934;51.532;7.684;2023-02-12T09:25:53;102692.53;;;8.66;nan
70468;BME280;57934;51.532;7.684;2023-02-12T09:28:19;102692.44;;;8.67;nan
70468;BME280;57934;51.532;7.684;2023-02-12T09:30:45;102695.53;;;8.72;nan
70468;BME280;57934;51.532;7.684;2023-02-12T09:33:11;102687.00;;;8.80;nan
70468;BME280;57934;51.532;7.684;2023-02-12T09:35:38;102692.88;;;8.83;nan
70468;BME280;57934;51.532;7.684;2023-02-12T09:38:05;102696.09;;;8.87;nan
70468;BME280;57934;51.532;7.684;2023-02-12T09:40:38;102696.06;;;8.98;nan
70468;BME280;57934;51.532;7.684;2023-02-12T09:43:16;102702.41;;;9.07;nan
70468;BME280;57934;51.532;7.684;2023-02-12T09:45:54;102689.63;;;9.02;nan
70468;BME280;57934;51.532;7.684;2023-02-12T09:48:34;102702.66;;;9.04;nan
70468;BME280;57934;51.532;7.684;2023-02-12T09:51:07;102699.53;;;9.10;nan
70468;BME280;57934;51.532;7.684;2023-02-12T09:53:41;102699.53;;;9.10;nan
70468;BME280;57934;51.532;7.684;2023-02-12T09:56:16;102707.19;;;9.13;nan
70468;BME280;57934;51.532;7.684;2023-02-12T09:58:53;102710.75;;;9.12;nan
70468;BME280;57934;51.532;7.684;2023-02-12T10:01:27;102709.09;;;9.11;nan
70468;BME280;57934;51.532;7.684;2023-02-12T10:03:55;102701.78;;;9.15;nan
70468;BME280;57934;51.532;7.684;2023-02-12T10:06:28;102699.63;;;9.08;nan
70468;BME280;57934;51.532;7.684;2023-02-12T10:11:44;102710.16;;;9.20;nan
70468;BME280;57934;51.532;7.684;2023-02-12T10:25:45;102714.16;;;10.09;nan
70468;BME280;57934;51.532;7.684;2023-02-12T10:28:37;102705.03;;;10.13;nan
70468;BME280;57934;51.532;7.684;2023-02-12T10:33:46;102697.38;;;9.89;nan
70468;BME280;57934;51.532;7.684;2023-02-12T10:41:42;102697.78;;;9.85;nan
70468;BME280;57934;51.532;7.684;2023-02-12T10:44:10;102700.09;;;9.99;nan
70468;BME280;57934;51.532;7.684;2023-02-12T10:46:37;102700.59;;;10.14;nan
70468;BME280;57934;51.532;7.684;2023-02-12T10:49:05;102690.78;;;9.95;nan
70468;BME280;57934;51.532;7.684;2023-02-12T10:51:42;102691.59;;;10.16;nan
70468;BME280;57934;51.532;7.684;2023-02-12T10:56:57;102684.66;;;10.15;nan
70468;BME280;57934;51.532;7.684;2023-02-12T10:59:23;102688.81;;;10.18;nan
70468;BME280;57934;51.532;7.684;2023-02-12T11:01:49;102688.44;;;10.22;nan
70468;BME280;57934;51.532;7.684;2023-02-12T11:04:30;102694.78;;;10.20;nan
70468;BME280;57934;51.532;7.684;2023-02-12T11:07:04;102694.31;;;10.26;nan
70468;BME280;57934;51.532;7.684;2023-02-12T11:12:02;102681.88;;;10.17;nan
70468;BME280;57934;51.532;7.684;2023-02-12T11:14:29;102676.69;;;10.26;nan
70468;BME280;57934;51.532;7.684;2023-02-12T11:16:57;102674.03;;;10.57;nan
70468;BME280;57934;51.532;7.684;2023-02-12T11:19:26;102670.47;;;10.68;nan
70468;BME280;57934;51.532;7.684;2023-02-12T11:22:05;102669.34;;;10.70;nan
70468;BME280;57934;51.532;7.684;2023-02-12T11:24:34;102672.44;;;10.85;nan
70468;BME280;57934;51.532;7.684;2023-02-12T11:27:30;102670.94;;;10.92;nan
70468;BME280;57934;51.532;7.684;2023-02-12T11:32:35;102668.56;;;10.89;nan
70468;BME280;57934;51.532;7.684;2023-02-12T11:35:10;102664.66;;;10.84;nan
70468;BME280;57934;51.532;7.684;2023-02-12T11:37:44;102668.91;;;10.65;nan
70468;BME280;57934;51.532;7.684;2023-02-12T11:40:44;102665.50;;;10.44;nan
70468;BME280;57934;51.532;7.684;2023-02-12T11:43:16;102675.59;;;10.29;nan
70468;BME280;57934;51.532;7.684;2023-02-12T11:45:47;102667.59;;;10.19;nan
70468;BME280;57934;51.532;7.684;2023-02-12T11:48:30;102666.19;;;10.15;nan
70468;BME280;57934;51.532;7.684;2023-02-12T11:51:00;102665.94;;;10.18;nan
70468;BME280;57934;51.532;7.684;2023-02-12T11:53:33;102653.81;;;10.37;nan
70468;BME280;57934;51.532;7.684;2023-02-12T11:56:04;102657.34;;;10.47;nan
70468;BME280;57934;51.532;7.684;2023-02-12T11:58:30;102660.47;;;10.10;nan
70468;BME280;57934;51.532;7.684;2023-02-12T12:01:20;102668.38;;;10.10;nan
70468;BME280;57934;51.532;7.684;2023-02-12T12:04:13;102657.50;;;10.03;nan
70468;BME280;57934;51.532;7.684;2023-02-12T12:06:47;102658.03;;;10.18;nan
70468;BME280;57934;51.532;7.684;2023-02-12T12:09:31;102651.78;;;10.19;nan
70468;BME280;57934;51.532;7.684;2023-02-12T12:14:51;102647.84;;;10.04;nan
70468;BME280;57934;51.532;7.684;2023-02-12T12:20:31;102638.41;;;9.80;nan
70468;BME280;57934;51.532;7.684;2023-02-12T12:23:44;102628.25;;;9.97;nan
70468;BME280;57934;51.532;7.684;2023-02-12T12:26:24;102625.78;;;10.05;nan
70468;BME280;57934;51.532;7.684;2023-02-12T12:29:25;102628.47;;;10.15;nan
70468;BME280;57934;51.532;7.684;2023-02-12T12:31:58;102623.19;;;10.15;nan
70468;BME280;57934;51.532;7.684;2023-02-12T12:34:27;102626.34;;;10.09;nan
70468;BME280;57934;51.532;7.684;2023-02-12T12:37:13;102616.00;;;9.96;nan
70468;BME280;57934;51.532;7.684;2023-02-12T12:40:15;102619.03;;;9.91;nan
70468;BME280;57934;51.532;7.684;2023-02-12T12:43:01;102616.59;;;9.78;nan
70468;BME280;57934;51.532;7.684;2023-02-12T12:45:41;102618.63;;;9.65;nan
70468;BME280;57934;51.532;7.684;2023-02-12T12:48:23;102607.94;;;9.67;nan
70468;BME280;57934;51.532;7.684;2023-02-12T12:57:29;102607.19;;;9.55;nan
70468;BME280;57934;51.532;7.684;2023-02-12T12:59:38;102602.63;;;9.57;nan
70468;BME280;57934;51.532;7.684;2023-02-12T13:10:18;102582.84;;;9.42;nan
70468;BME280;57934;51.532;7.684;2023-02-12T13:15:40;102584.69;;;9.30;nan
70468;BME280;57934;51.532;7.684;2023-02-12T13:20:45;102582.25;;;9.17;nan
70468;BME280;57934;51.532;7.684;2023-02-12T13:25:55;102577.63;;;9.10;nan
70468;BME280;57934;51.532;7.684;2023-02-12T13:28:34;102571.72;;;9.17;nan
70468;BME280;57934;51.532;7.684;2023-02-12T13:31:03;102567.28;;;9.18;nan
70468;BME280;57934;51.532;7.684;2023-02-12T13:33:43;102569.66;;;9.21;nan
70468;BME280;57934;51.532;7.684;2023-02-12T13:36:12;102568.44;;;9.25;nan
70468;BME280;57934;51.532;7.684;2023-02-12T13:38:49;102574.34;;;9.17;nan
70468;BME280;57934;51.532;7.684;2023-02-12T13:41:16;102572.56;;;9.18;nan
70468;BME280;57934;51.532;7.684;2023-02-12T13:49:14;102579.16;;;9.12;nan
70468;BME280;57934;51.532;7.684;2023-02-12T13:51:48;102576.06;;;9.07;nan
70468;BME280;57934;51.532;7.684;2023-02-12T13:57:11;102580.84;;;9.13;nan
70468;BME280;57934;51.532;7.684;2023-02-12T13:59:46;102573.06;;;9.12;nan
70468;BME280;57934;51.532;7.684;2023-02-12T14:05:08;102574.78;;;9.01;nan
70468;BME280;57934;51.532;7.684;2023-02-12T14:07:46;102575.44;;;8.82;nan
70468;BME280;57934;51.532;7.684;2023-02-12T14:10:28;102575.31;;;8.95;nan
70468;BME280;57934;51.532;7.684;2023-02-12T14:13:07;102574.97;;;8.89;nan
70468;BME280;57934;51.532;7.684;2023-02-12T14:15:37;102573.03;;;8.91;nan
70468;BME280;57934;51.532;7.684;2023-02-12T14:23:33;102578.63;;;8.97;nan
70468;BME280;57934;51.532;7.684;2023-02-12T14:26:02;102577.53;;;9.00;nan
70468;BME280;57934;51.532;7.684;2023-02-12T14:28:46;102580.41;;;8.97;nan
70468;BME280;57934;51.532;7.684;2023-02-12T14:33:51;102583.25;;;9.05;nan
70468;BME280;57934;51.532;7.684;2023-02-12T14:36:39;102588.06;;;9.00;nan
70468;BME280;57934;51.532;7.684;2023-02-12T14:39:26;102580.19;;;9.00;nan
70468;BME280;57934;51.532;7.684;2023-02-12T14:44:55;102580.56;;;8.95;nan
70468;BME280;57934;51.532;7.684;2023-02-12T14:49:56;102586.13;;;9.02;nan
70468;BME280;57934;51.532;7.684;2023-02-12T14:52:29;102572.97;;;9.02;nan
70468;BME280;57934;51.532;7.684;2023-02-12T14:55:00;102579.44;;;8.98;nan
70468;BME280;57934;51.532;7.684;2023-02-12T14:57:30;102576.25;;;8.94;nan
70468;BME280;57934;51.532;7.684;2023-02-12T15:00:19;102572.91;;;8.92;nan
70468;BME280;57934;51.532;7.684;2023-02-12T15:02:51;102578.53;;;8.88;nan
70468;BME280;57934;51.532;7.684;2023-02-12T15:08:05;102578.72;;;8.75;nan
70468;BME280;57934;51.532;7.684;2023-02-12T15:10:36;102575.00;;;8.66;nan
70468;BME280;57934;51.532;7.684;2023-02-12T15:13:30;102572.97;;;8.70;nan
70468;BME280;57934;51.532;7.684;2023-02-12T15:16:11;102573.69;;;8.72;nan
70468;BME280;57934;51.532;7.684;2023-02-12T15:18:45;102561.50;;;8.71;nan
70468;BME280;57934;51.532;7.684;2023-02-12T15:23:59;102555.66;;;8.67;nan
70468;BME280;57934;51.532;7.684;2023-02-12T15:26:27;102559.00;;;8.69;nan
70468;BME280;57934;51.532;7.684;2023-02-12T15:28:54;102564.50;;;8.66;nan
70468;BME280;57934;51.532;7.684;2023-02-12T15:31:25;102566.44;;;8.64;nan
70468;BME280;57934;51.532;7.684;2023-02-12T15:33:53;102552.09;;;8.57;nan
70468;BME280;57934;51.532;7.684;2023-02-12T15:36:22;102554.16;;;8.53;nan
70468;BME280;57934;51.532;7.684;2023-02-12T15:38:52;102549.72;;;8.54;nan
70468;BME280;57934;51.532;7.684;2023-02-12T15:41:35;102547.19;;;8.52;nan
70468;BME280;57934;51.532;7.684;2023-02-12T15:44:18;102548.31;;;8.50;nan
70468;BME280;57934;51.532;7.684;2023-02-12T15:49:31;102544.34;;;8.44;nan
70468;BME280;57934;51.532;7.684;2023-02-12T15:51:59;102554.03;;;8.44;nan
70468;BME280;57934;51.532;7.684;2023-02-12T15:54:27;102545.91;;;8.47;nan